Time;durP1;ratioP1;P1;durP2;ratioP2;P2;SDS_P1;SDS_P2;PMS_P1;PMS_P2;Temp;Humidity;BMP_temperature;BMP_pressure;BME280_temperature;BME280_humidity;BME280_pressure;Samples;Min_cycle;Max_cycle;Signal;HPM_P1;HPM_P2
2023/01/02 00:00:58;;;;;;;0.88;0.88;;;;;;;2.49;100.00;97853.53;4978172;28;20568;-85
2023/01/02 00:03:26;;;;;;;0.80;0.80;;;;;;;2.47;100.00;97842.28;5012186;28;20142;-85
2023/01/02 00:05:56;;;;;;;0.80;0.80;;;;;;;2.45;100.00;97846.19;5011437;28;20057;-84
2023/01/02 00:08:23;;;;;;;0.70;0.70;;;;;;;2.34;100.00;97877.84;5011807;28;20056;-84
2023/01/02 00:10:50;;;;;;;0.80;0.80;;;;;;;2.04;100.00;97876.88;5012224;28;20062;-84
2023/01/02 00:13:19;;;;;;;0.80;0.80;;;;;;;1.72;100.00;97903.50;5011973;28;20050;-84
2023/01/02 00:15:46;;;;;;;0.80;0.80;;;;;;;1.48;100.00;97910.41;5012279;28;20560;-83
2023/01/02 00:18:13;;;;;;;0.80;0.80;;;;;;;1.33;100.00;97918.66;5015295;28;20056;-83
2023/01/02 00:20:40;;;;;;;0.90;0.90;;;;;;;1.26;100.00;97920.53;4977829;28;20107;-85
2023/01/02 00:23:08;;;;;;;0.82;0.82;;;;;;;1.15;100.00;97939.78;4994288;28;20119;-85
2023/01/02 00:25:35;;;;;;;0.90;0.90;;;;;;;1.10;100.00;97940.41;4993324;28;20095;-84
2023/01/02 00:28:02;;;;;;;0.80;0.80;;;;;;;1.08;100.00;97953.09;5010971;28;20561;-83
2023/01/02 00:30:29;;;;;;;0.80;0.80;;;;;;;1.08;100.00;97969.84;5010953;28;20042;-84
2023/01/02 00:33:05;;;;;;;0.73;0.73;;;;;;;1.07;100.00;97972.72;5010845;28;20042;-84
2023/01/02 00:35:33;;;;;;;0.80;0.80;;;;;;;1.02;100.00;97975.19;5010957;28;20453;-82
2023/01/02 00:38:00;;;;;;;0.90;0.90;;;;;;;0.98;100.00;97987.25;5010706;28;20080;-84
2023/01/02 00:40:27;;;;;;;0.90;0.90;;;;;;;0.95;100.00;97990.34;4992989;28;20050;-83
2023/01/02 00:42:54;;;;;;;0.90;0.90;;;;;;;0.90;100.00;98003.41;5010411;28;20049;-85
2023/01/02 00:45:21;;;;;;;0.80;0.80;;;;;;;0.88;100.00;98008.94;5011085;28;20148;-85
2023/01/02 00:47:48;;;;;;;0.90;0.90;;;;;;;0.85;100.00;98034.06;5014598;28;20046;-85
2023/01/02 00:50:15;;;;;;;0.90;0.90;;;;;;;0.84;100.00;98040.41;5017292;28;20069;-85
2023/01/02 00:52:42;;;;;;;0.80;0.80;;;;;;;0.78;100.00;98054.50;5014898;28;20054;-85
2023/01/02 00:55:09;;;;;;;0.90;0.90;;;;;;;0.81;100.00;98066.56;4992896;28;20429;-84
2023/01/02 00:57:38;;;;;;;0.80;0.80;;;;;;;0.82;100.00;98062.88;4992229;28;20050;-83
2023/01/02 01:00:06;;;;;;;0.80;0.80;;;;;;;0.81;100.00;98054.09;4976339;28;20046;-83
2023/01/02 01:02:33;;;;;;;0.90;0.90;;;;;;;0.80;100.00;98057.78;5010262;28;20608;-86
2023/01/02 01:05:01;;;;;;;0.90;0.90;;;;;;;0.79;100.00;98071.28;5010300;28;20050;-85
2023/01/02 01:07:29;;;;;;;0.80;0.80;;;;;;;0.78;100.00;98080.25;4993263;28;20108;-84
2023/01/02 01:09:56;;;;;;;0.80;0.80;;;;;;;0.77;100.00;98089.25;5009809;28;20068;-84
2023/01/02 01:12:23;;;;;;;0.90;0.90;;;;;;;0.73;100.00;98094.13;5010319;28;20424;-84
2023/01/02 01:14:50;;;;;;;0.80;0.80;;;;;;;0.72;100.00;98099.66;4992683;28;20083;-84
2023/01/02 01:17:17;;;;;;;0.80;0.80;;;;;;;0.63;100.00;98099.03;4992879;28;20136;-84
2023/01/02 01:19:44;;;;;;;0.85;0.85;;;;;;;0.78;100.00;98115.59;4993418;28;20046;-84
2023/01/02 01:22:11;;;;;;;0.80;0.80;;;;;;;0.79;100.00;98119.09;4993622;28;20054;-85
2023/01/02 01:24:38;;;;;;;0.90;0.90;;;;;;;0.78;100.00;98114.78;5010296;28;20050;-84
2023/01/02 01:27:05;;;;;;;0.90;0.90;;;;;;;0.73;100.00;98126.00;5010047;28;20045;-84
2023/01/02 01:29:32;;;;;;;0.90;0.90;;;;;;;0.71;100.00;98129.88;5011415;28;20144;-83
2023/01/02 01:31:59;;;;;;;0.90;0.90;;;;;;;0.69;100.00;98132.75;5014581;28;20046;-85
2023/01/02 01:34:26;;;;;;;0.90;0.90;;;;;;;0.70;100.00;98134.38;4997580;28;20531;-84
2023/01/02 01:36:53;;;;;;;0.80;0.80;;;;;;;0.68;100.00;98144.38;5013503;28;20104;-85
2023/01/02 01:39:20;;;;;;;0.90;0.90;;;;;;;0.62;100.00;98146.00;4996186;28;20424;-85
2023/01/02 01:41:47;;;;;;;0.80;0.80;;;;;;;0.62;100.00;98135.41;4996243;28;20109;-83
2023/01/02 01:44:49;;;;;;;0.80;0.80;;;;;;;0.62;100.00;98153.16;4996384;28;20081;-84
2023/01/02 01:47:16;;;;;;;0.80;0.80;;;;;;;0.57;100.00;98169.69;5014042;28;20096;-84
2023/01/02 01:49:44;;;;;;;0.80;0.80;;;;;;;0.56;100.00;98184.00;4996120;28;20046;-85
2023/01/02 01:52:15;;;;;;;0.82;0.82;;;;;;;0.55;100.00;98192.16;4980133;28;20568;-84
2023/01/02 01:54:50;;;;;;;0.90;0.90;;;;;;;0.53;100.00;98205.66;4995862;28;20063;-84
2023/01/02 01:57:39;;;;;;;0.80;0.80;;;;;;;0.54;100.00;98201.97;5013401;28;20058;-83
2023/01/02 02:00:07;;;;;;;0.90;0.90;;;;;;;0.49;100.00;98201.75;5013222;28;20060;-85
2023/01/02 02:02:35;;;;;;;0.80;0.80;;;;;;;0.48;100.00;98224.03;5013231;28;20501;-85
2023/01/02 02:05:06;;;;;;;0.82;0.82;;;;;;;0.38;100.00;98205.81;5012871;28;20050;-84
2023/01/02 02:07:34;;;;;;;0.90;0.90;;;;;;;0.42;100.00;98215.00;4996036;28;20068;-83
2023/01/02 02:10:05;;;;;;;0.80;0.80;;;;;;;0.43;100.00;98215.81;4995706;28;20147;-83
2023/01/02 02:12:33;;;;;;;0.90;0.90;;;;;;;0.46;100.00;98233.16;4999146;28;20485;-84
2023/01/02 02:15:00;;;;;;;0.90;0.90;;;;;;;0.45;100.00;98232.34;5012634;28;20064;-84
2023/01/02 02:17:55;;;;;;;0.90;0.90;;;;;;;0.43;100.00;98237.88;5012870;28;20429;-83
2023/01/02 02:20:36;;;;;;;0.80;0.80;;;;;;;0.42;100.00;98246.03;4979353;28;20050;-84
2023/01/02 02:23:13;;;;;;;0.68;0.68;;;;;;;0.41;100.00;98255.84;5013056;28;20066;-83
2023/01/02 02:26:09;;;;;;;0.88;0.88;;;;;;;0.42;100.00;98267.28;5004628;28;20058;-83
2023/01/02 02:29:02;;;;;;;0.90;0.90;;;;;;;0.40;100.00;98277.25;4913640;29;20052;-83
2023/01/02 02:31:29;;;;;;;0.90;0.90;;;;;;;0.41;100.00;98289.53;4914129;29;20060;-83
2023/01/02 02:34:20;;;;;;;0.80;0.80;;;;;;;0.44;100.00;98283.81;4913949;29;20093;-84
2023/01/02 02:37:11;;;;;;;0.80;0.80;;;;;;;0.40;100.00;98279.91;4913965;29;20056;-83
2023/01/02 02:39:45;;;;;;;0.90;0.90;;;;;;;0.40;100.00;98287.88;4913528;29;20075;-83
2023/01/02 02:42:27;;;;;;;0.90;0.90;;;;;;;0.36;100.00;98303.41;4912769;29;20052;-84
2023/01/02 02:45:20;;;;;;;0.90;0.90;;;;;;;0.34;100.00;98324.00;4913581;29;20551;-83
2023/01/02 02:47:52;;;;;;;0.80;0.80;;;;;;;0.31;100.00;98324.41;4897680;29;20086;-84
2023/01/02 02:50:43;;;;;;;0.90;0.90;;;;;;;0.30;100.00;98337.84;4913512;29;20076;-83
2023/01/02 02:53:21;;;;;;;0.80;0.80;;;;;;;0.26;100.00;98334.78;4898524;29;20059;-84
2023/01/02 02:55:52;;;;;;;0.90;0.90;;;;;;;0.27;100.00;98344.38;4897578;29;20056;-84
2023/01/02 02:58:20;;;;;;;0.80;0.80;;;;;;;0.25;100.00;98354.34;4897504;29;20155;-83
2023/01/02 03:00:47;;;;;;;0.80;0.80;;;;;;;0.21;100.00;98353.94;4897277;29;20143;-83
2023/01/02 03:03:16;;;;;;;0.85;0.85;;;;;;;0.24;100.00;98375.78;4909923;29;20088;-83
2023/01/02 03:06:15;;;;;;;0.80;0.80;;;;;;;0.22;100.00;98378.63;4962198;28;20409;-83
2023/01/02 03:09:18;;;;;;;0.80;0.80;;;;;;;0.19;100.00;98387.00;4997104;28;20058;-81
2023/01/02 03:12:03;;;;;;;0.90;0.90;;;;;;;0.15;100.00;98383.91;4983329;28;20046;-83
2023/01/02 03:14:32;;;;;;;;;;;;;;;0.07;100.00;98393.84;5001261;28;20158;-83
2023/01/02 03:17:04;;;;;;;0.90;0.90;;;;;;;-0.04;100.00;98366.81;4997191;28;19925;-83
2023/01/02 03:19:41;;;;;;;0.77;0.77;;;;;;;-0.07;100.00;98407.00;4989834;28;20049;-83
2023/01/02 03:22:14;;;;;;;0.80;0.80;;;;;;;-0.12;100.00;98400.63;4994369;28;20472;-82
2023/01/02 03:24:43;;;;;;;0.80;0.80;;;;;;;-0.09;100.00;98424.91;4994249;28;20140;-84
2023/01/02 03:27:16;;;;;;;0.90;0.90;;;;;;;-0.11;100.00;98415.50;5011515;28;20041;-83
2023/01/02 03:29:48;;;;;;;0.82;0.82;;;;;;;-0.17;100.00;98425.06;4977598;28;20464;-83
2023/01/02 03:32:24;;;;;;;0.80;0.80;;;;;;;-0.25;100.00;98435.81;5011584;28;20042;-84
2023/01/02 03:34:52;;;;;;;0.90;0.90;;;;;;;-0.27;100.00;98448.41;5011405;28;20060;-83
2023/01/02 03:37:24;;;;;;;0.90;0.90;;;;;;;-0.32;100.00;98456.94;5011319;28;20100;-83
2023/01/02 03:39:54;;;;;;;0.90;0.90;;;;;;;-0.35;100.00;98461.81;4977674;28;20056;-83
2023/01/02 03:42:34;;;;;;;0.80;0.80;;;;;;;-0.42;100.00;98468.88;5016288;28;20048;-84
2023/01/02 03:45:02;;;;;;;0.93;0.93;;;;;;;-0.51;100.00;98476.91;5017149;28;20049;-84
2023/01/02 03:47:55;;;;;;;0.70;0.70;;;;;;;-0.56;100.00;98474.00;4982349;28;20081;-84
2023/01/02 03:50:31;;;;;;;1.00;1.00;;;;;;;-0.58;100.00;98489.28;4997561;28;20071;-83
2023/01/02 03:52:59;;;;;;;0.80;0.80;;;;;;;-0.61;100.00;98484.31;5011225;28;20053;-83
2023/01/02 03:55:28;;;;;;;0.90;0.90;;;;;;;-0.68;100.00;98478.97;4977194;28;20149;-83
2023/01/02 03:58:08;;;;;;;0.90;0.90;;;;;;;-0.70;100.00;98496.06;4961313;28;20101;-83
2023/01/02 04:01:05;;;;;;;0.85;0.85;;;;;;;-0.70;100.00;98512.78;4977666;28;20053;-83
2023/01/02 04:03:48;;;;;;;0.80;0.80;;;;;;;-0.76;100.00;98513.53;4896769;29;20679;-83
2023/01/02 04:06:26;;;;;;;0.80;0.80;;;;;;;-0.83;100.00;98511.78;4886159;29;20052;-84
2023/01/02 04:09:18;;;;;;;0.90;0.90;;;;;;;-0.82;100.00;98521.38;4912490;29;20052;-84
2023/01/02 04:11:49;;;;;;;0.90;0.90;;;;;;;-0.88;100.00;98542.28;4879121;29;20063;-84
2023/01/02 04:14:25;;;;;;;0.90;0.90;;;;;;;-0.93;100.00;98534.06;4896333;29;20059;-85
2023/01/02 04:16:53;;;;;;;0.80;0.80;;;;;;;-0.96;100.00;98526.50;4912013;29;20076;-83
2023/01/02 04:19:26;;;;;;;0.80;0.80;;;;;;;-0.98;100.00;98530.31;4911809;29;20147;-83
2023/01/02 04:21:57;;;;;;;0.90;0.90;;;;;;;-1.00;100.00;98530.50;4896099;29;20070;-83
2023/01/02 04:24:31;;;;;;;0.90;0.90;;;;;;;-1.01;100.00;98544.75;4896207;29;20059;-83
2023/01/02 04:27:04;;;;;;;0.98;0.98;;;;;;;-0.98;100.00;98548.88;4911508;29;20432;-83
2023/01/02 04:29:31;;;;;;;0.80;0.80;;;;;;;-0.99;100.00;98553.31;4911697;29;20059;-83
2023/01/02 04:32:04;;;;;;;0.80;0.80;;;;;;;-1.05;100.00;98559.34;4911657;29;20056;-83
2023/01/02 04:34:33;;;;;;;0.85;0.85;;;;;;;-1.13;100.00;98554.97;4911633;29;20559;-83
2023/01/02 04:37:00;;;;;;;0.80;0.80;;;;;;;-1.19;100.00;98549.56;4911771;29;20056;-83
2023/01/02 04:39:27;;;;;;;0.90;0.90;;;;;;;-1.26;100.00;98548.66;4939396;28;20045;-84
2023/01/02 04:41:55;;;;;;;0.75;0.75;;;;;;;-1.31;100.00;98559.78;4982164;28;20141;-83
2023/01/02 04:44:22;;;;;;;0.90;0.90;;;;;;;-1.37;100.00;98557.81;4991861;28;20441;-83
2023/01/02 04:46:49;;;;;;;0.80;0.80;;;;;;;-1.41;100.00;98546.78;4990779;28;20218;-83
2023/01/02 04:49:17;;;;;;;0.80;0.80;;;;;;;-1.46;100.00;98562.38;4991295;28;20042;-87
2023/01/02 04:51:44;;;;;;;0.82;0.82;;;;;;;-1.39;100.00;98579.19;4998888;28;20104;-84
2023/01/02 04:54:11;;;;;;;0.90;0.90;;;;;;;-1.43;100.00;98580.56;4998958;28;20050;-83
2023/01/02 04:56:38;;;;;;;0.80;0.80;;;;;;;-1.45;100.00;98593.13;5002446;28;20056;-84
2023/01/02 04:59:06;;;;;;;0.90;0.90;;;;;;;-1.42;100.00;98611.34;5001966;28;20050;-85
2023/01/02 05:01:33;;;;;;;0.90;0.90;;;;;;;-1.46;100.00;98617.16;4987252;28;20047;-85
2023/01/02 05:04:00;;;;;;;0.88;0.88;;;;;;;-1.57;100.00;98611.28;4962448;28;20047;-84
2023/01/02 05:06:27;;;;;;;1.00;1.00;;;;;;;-1.57;100.00;98631.59;4995922;28;20097;-82
2023/01/02 05:08:54;;;;;;;0.80;0.80;;;;;;;-1.57;100.00;98635.09;4995658;28;20056;-88
2023/01/02 05:11:21;;;;;;;0.90;0.90;;;;;;;-1.56;100.00;98623.50;5007296;28;20046;-86
2023/01/02 05:13:48;;;;;;;0.88;0.88;;;;;;;-1.57;100.00;98619.22;4966195;28;20042;-85
2023/01/02 05:16:15;;;;;;;0.90;0.90;;;;;;;-1.57;100.00;98647.47;4959108;28;20051;-87
2023/01/02 05:18:42;;;;;;;0.90;0.90;;;;;;;-1.54;100.00;98640.03;4975223;28;20058;-86
2023/01/02 05:23:47;;;;;;;1.00;1.00;;;;;;;-1.62;100.00;98639.25;4958071;28;20054;-86
2023/01/02 05:24:01;;;;;;;0.90;0.90;;;;;;;-1.63;99.86;98648.19;4980272;28;20054;-86
2023/01/02 05:26:32;;;;;;;0.75;0.75;;;;;;;-1.68;99.82;98661.13;4995253;28;20509;-88
2023/01/02 05:28:59;;;;;;;0.90;0.90;;;;;;;-1.71;99.56;98677.34;4962636;28;20050;-84
2023/01/02 05:31:28;;;;;;;0.90;0.90;;;;;;;-1.83;99.36;98675.06;4947447;28;20518;-83
2023/01/02 05:33:58;;;;;;;0.80;0.80;;;;;;;-1.85;99.74;98677.09;4971339;28;20078;-84
2023/01/02 05:36:26;;;;;;;0.80;0.80;;;;;;;-1.81;99.20;98715.41;4967890;28;20054;-83
2023/01/02 05:38:53;;;;;;;0.80;0.80;;;;;;;-1.82;98.96;98732.28;4998780;28;20149;-82
2023/01/02 05:41:24;;;;;;;0.90;0.90;;;;;;;-1.80;98.71;98721.53;4976769;28;20097;-86
2023/01/02 05:43:51;;;;;;;0.90;0.90;;;;;;;-1.77;98.20;98724.66;4964956;28;20079;-84
2023/01/02 05:46:19;;;;;;;0.90;0.90;;;;;;;-1.80;97.80;98716.22;4621565;28;10000659;-81
2023/01/02 05:48:47;;;;;;;1.00;1.00;;;;;;;-1.93;97.57;98708.03;4990209;28;20069;-82
2023/01/02 05:51:15;;;;;;;0.90;0.90;;;;;;;-1.84;97.47;98710.47;4991306;28;20080;-84
2023/01/02 05:53:43;;;;;;;1.00;1.00;;;;;;;-1.78;96.68;98711.59;4960917;28;20515;-84
2023/01/02 05:56:13;;;;;;;0.93;0.93;;;;;;;-1.88;96.22;98725.03;5001838;28;20050;-86
2023/01/02 05:58:42;;;;;;;0.90;0.90;;;;;;;-1.91;96.06;98729.84;4975242;28;20050;-85
2023/01/02 06:01:12;;;;;;;1.00;1.00;;;;;;;-1.93;96.21;98735.31;4987308;28;20050;-86
2023/01/02 06:03:47;;;;;;;0.90;0.90;;;;;;;-1.94;95.96;98736.31;4978357;28;20046;-86
2023/01/02 06:06:16;;;;;;;0.70;0.70;;;;;;;-1.98;95.54;98745.56;4986403;28;20060;-84
2023/01/02 06:08:44;;;;;;;0.75;0.75;;;;;;;-2.02;95.88;98753.03;4997610;28;20126;-87
2023/01/02 06:11:13;;;;;;;0.85;0.85;;;;;;;-1.99;95.53;98755.31;4965551;28;20058;-87
2023/01/02 06:13:44;;;;;;;0.90;0.90;;;;;;;-1.96;95.20;98754.97;4984559;28;20551;-88
2023/01/02 06:16:13;;;;;;;0.70;0.70;;;;;;;-2.01;94.72;98740.63;4987892;28;20054;-85
2023/01/02 06:18:40;;;;;;;0.80;0.80;;;;;;;-1.92;94.48;98781.09;4991645;28;20057;-88
2023/01/02 06:21:12;;;;;;;0.90;0.90;;;;;;;-1.88;93.77;98793.00;5000760;28;20045;-88
2023/01/02 06:23:40;;;;;;;0.93;0.93;;;;;;;-2.02;93.71;98786.59;4980620;28;20445;-87
2023/01/02 06:26:10;;;;;;;0.90;0.90;;;;;;;-2.02;93.92;98786.59;5000333;28;20494;-87
2023/01/02 06:28:37;;;;;;;0.80;0.80;;;;;;;-1.95;93.69;98787.53;5003871;28;20418;-85
2023/01/02 06:31:10;;;;;;;1.00;1.00;;;;;;;-1.91;93.47;98810.03;4977211;28;20058;-85
2023/01/02 06:33:38;;;;;;;0.90;0.90;;;;;;;-1.92;93.39;98816.31;4998370;28;20125;-85
2023/01/02 06:36:14;;;;;;;0.75;0.75;;;;;;;-1.94;93.45;98820.94;5000422;28;20144;-85
2023/01/02 06:38:42;;;;;;;1.02;1.02;;;;;;;-1.96;93.50;98842.25;4954927;28;20124;-86
2023/01/02 06:41:09;;;;;;;0.90;0.90;;;;;;;-1.87;93.03;98832.50;4976325;28;20054;-86
2023/01/02 06:43:42;;;;;;;0.70;0.70;;;;;;;-1.86;92.78;98843.91;5006632;28;20042;-84
2023/01/02 06:46:10;;;;;;;1.00;1.00;;;;;;;-1.78;92.22;98842.06;4995395;28;20513;-85
2023/01/02 06:48:41;;;;;;;1.00;1.00;;;;;;;-1.75;91.56;98836.44;4973696;28;20609;-85
2023/01/02 06:51:10;;;;;;;1.00;1.00;;;;;;;-1.71;90.50;98836.09;4972070;28;20445;-86
2023/01/02 06:53:42;;;;;;;0.98;0.98;;;;;;;-1.73;90.49;98840.75;4956515;28;20129;-87
2023/01/02 06:56:11;;;;;;;0.88;0.88;;;;;;;-1.76;90.01;98842.72;4972063;28;20134;-85
2023/01/02 06:58:53;;;;;;;0.90;0.90;;;;;;;-1.72;89.71;98850.31;4975412;28;20140;-84
2023/01/02 07:01:22;;;;;;;0.90;0.90;;;;;;;-1.66;89.72;98860.25;4960068;28;20053;-85
2023/01/02 07:03:49;;;;;;;0.90;0.90;;;;;;;-1.68;88.95;98856.94;4994656;28;20141;-85
2023/01/02 07:06:18;;;;;;;1.00;1.00;;;;;;;-1.62;88.62;98872.13;4976651;28;20056;-83
2023/01/02 07:08:46;;;;;;;0.90;0.90;;;;;;;-1.60;87.56;98870.13;4992231;28;20054;-84
2023/01/02 07:11:15;;;;;;;0.90;0.90;;;;;;;-1.44;86.40;98883.34;4975108;28;20058;-85
2023/01/02 07:13:47;;;;;;;1.00;1.00;;;;;;;-1.37;85.48;98888.75;4959622;28;20046;-86
2023/01/02 07:16:16;;;;;;;0.85;0.85;;;;;;;-1.24;84.45;98877.63;4975013;28;20058;-84
2023/01/02 07:18:43;;;;;;;0.93;0.93;;;;;;;-0.88;82.91;98901.81;4992207;28;20101;-82
2023/01/02 07:21:13;;;;;;;0.95;0.95;;;;;;;-0.76;82.03;98902.22;4975978;28;20469;-84
2023/01/02 07:23:41;;;;;;;0.90;0.90;;;;;;;-0.76;81.95;98867.78;4979438;28;20073;-87
2023/01/02 07:26:09;;;;;;;0.82;0.82;;;;;;;-0.70;81.02;98890.94;4962127;28;20141;-84
2023/01/02 07:28:41;;;;;;;0.80;0.80;;;;;;;-0.64;79.54;98892.88;4971174;28;20050;-84
2023/01/02 07:31:17;;;;;;;0.80;0.80;;;;;;;-0.56;78.52;98895.47;4985020;28;20065;-85
2023/01/02 07:33:46;;;;;;;0.88;0.88;;;;;;;-0.46;77.31;98911.16;4967786;28;20046;-83
2023/01/02 07:36:18;;;;;;;0.90;0.90;;;;;;;-0.48;76.74;98903.38;5000831;28;20081;-82
2023/01/02 07:38:52;;;;;;;1.10;1.10;;;;;;;-0.22;75.86;98924.25;4983341;28;20049;-82
2023/01/02 07:41:26;;;;;;;0.95;0.95;;;;;;;-0.23;75.33;98917.31;4994665;23;20125;-85
2023/01/02 07:43:55;;;;;;;1.10;1.10;;;;;;;0.02;74.30;98930.34;4936157;28;20063;-82
2023/01/02 07:46:23;;;;;;;0.90;0.90;;;;;;;0.03;73.67;98913.44;4953793;29;20062;-86
2023/01/02 07:48:50;;;;;;;0.90;0.90;;;;;;;0.18;73.04;98911.66;4961154;28;20522;-85
2023/01/02 07:51:17;;;;;;;0.98;0.98;;;;;;;0.32;72.58;98911.84;4971885;28;20495;-84
2023/01/02 07:53:54;;;;;;;0.95;0.95;;;;;;;0.47;70.48;98925.97;4941848;28;20209;-87
2023/01/02 07:56:22;;;;;;;0.90;0.90;;;;;;;0.47;69.89;98927.81;4972309;28;20049;-84
2023/01/02 07:58:49;;;;;;;0.98;0.98;;;;;;;0.59;69.18;98937.00;4973467;28;20063;-83
2023/01/02 08:01:16;;;;;;;1.10;1.10;;;;;;;0.68;68.50;98940.38;4973046;28;20137;-83
2023/01/02 08:03:44;;;;;;;1.10;1.10;;;;;;;0.91;68.45;98938.44;4973734;28;20079;-85
2023/01/02 08:06:13;;;;;;;0.90;0.90;;;;;;;0.88;67.81;98920.22;4956325;28;20043;-85
2023/01/02 08:08:41;;;;;;;1.00;1.00;;;;;;;1.03;67.32;98938.81;4972391;28;20050;-85
2023/01/02 08:11:11;;;;;;;1.00;1.00;;;;;;;1.11;66.37;98946.69;4938097;28;20097;-86
2023/01/02 08:13:38;;;;;;;1.00;1.00;;;;;;;1.21;65.32;98917.97;4954595;28;20053;-86
2023/01/02 08:16:12;;;;;;;0.95;0.95;;;;;;;1.42;65.23;98948.28;4952169;29;20077;-87
2023/01/02 08:18:39;;;;;;;1.00;1.00;;;;;;;1.69;63.49;98952.88;4956401;28;20050;-86
2023/01/02 08:21:11;;;;;;;0.95;0.95;;;;;;;1.56;63.19;98955.41;4941031;28;20137;-84
2023/01/02 08:23:38;;;;;;;1.10;1.10;;;;;;;1.65;62.73;98948.97;4956025;28;20046;-84
2023/01/02 08:26:08;;;;;;;0.90;0.90;;;;;;;1.67;62.10;98909.69;4954731;28;20517;-84
2023/01/02 08:28:54;;;;;;;1.00;1.00;;;;;;;1.96;62.22;98961.16;4973306;28;20519;-91
2023/01/02 08:31:24;;;;;;;1.10;1.10;;;;;;;1.97;61.19;98936.16;4945495;28;20469;-86
2023/01/02 08:33:52;;;;;;;0.90;0.90;;;;;;;2.22;60.29;98947.25;4963680;28;20055;-87
2023/01/02 08:36:21;;;;;;;1.10;1.10;;;;;;;2.13;59.46;98951.91;4962044;28;20082;-87
2023/01/02 08:38:48;;;;;;;1.10;1.10;;;;;;;2.23;59.73;98964.88;4941153;28;20054;-87
2023/01/02 08:41:29;;;;;;;0.90;0.90;;;;;;;2.19;59.84;98946.81;4963503;28;20047;-87
2023/01/02 08:43:56;;;;;;;1.10;1.10;;;;;;;2.46;58.98;98971.84;4987514;28;20047;-86
2023/01/02 08:46:24;;;;;;;0.90;0.90;;;;;;;2.50;58.48;98973.91;4938154;29;20055;-86
2023/01/02 08:48:51;;;;;;;0.90;0.90;;;;;;;2.88;58.16;98984.22;4933625;28;20047;-87
2023/01/02 08:51:18;;;;;;;1.10;1.10;;;;;;;3.24;57.01;98985.84;4961813;28;20075;-88
2023/01/02 08:53:46;;;;;;;1.00;1.00;;;;;;;3.17;56.30;98985.84;4972752;28;20163;-88
2023/01/02 08:56:17;;;;;;;1.10;1.10;;;;;;;2.91;56.85;98986.50;4956311;28;20097;-89
2023/01/02 08:58:49;;;;;;;1.00;1.00;;;;;;;3.22;56.53;99001.25;4984778;28;20579;-89
2023/01/02 09:01:20;;;;;;;1.10;1.10;;;;;;;3.23;56.29;98992.22;4964081;28;20059;-91
2023/01/02 09:03:47;;;;;;;1.00;1.00;;;;;;;3.26;55.86;98999.81;4931650;28;20101;-88
2023/01/02 09:06:14;;;;;;;1.10;1.10;;;;;;;3.34;55.29;98999.69;4963972;28;20047;-89
2023/01/02 09:08:51;;;;;;;1.00;1.00;;;;;;;3.55;55.22;98993.41;4981521;28;20059;-90
2023/01/02 09:11:23;;;;;;;1.00;1.00;;;;;;;3.42;55.13;99006.69;4978113;28;20047;-89
2023/01/02 09:13:50;;;;;;;1.13;1.13;;;;;;;3.58;55.57;99006.34;4945598;28;20054;-87
2023/01/02 09:16:20;;;;;;;1.10;1.10;;;;;;;3.98;54.16;98978.94;4977224;28;20090;-89
2023/01/02 09:18:47;;;;;;;1.05;1.05;;;;;;;4.11;53.16;99011.84;4944752;28;20047;-88
2023/01/02 09:21:17;;;;;;;1.17;1.17;;;;;;;3.84;53.58;99007.44;4963896;28;20586;-92
2023/01/02 09:23:50;;;;;;;1.15;1.15;;;;;;;3.74;54.43;99013.16;4935847;28;20605;-91
2023/01/02 09:26:20;;;;;;;1.10;1.10;;;;;;;3.77;53.80;99018.09;4969274;28;20042;-91
2023/01/02 09:28:51;;;;;;;1.20;1.20;;;;;;;3.65;53.56;99025.88;4965529;28;20132;-93
2023/01/02 09:31:22;;;;;;;1.10;1.10;;;;;;;3.62;53.72;99020.09;4972743;28;20078;-92
2023/01/02 09:33:53;;;;;;;1.25;1.20;;;;;;;3.87;52.54;99047.09;4950024;28;20526;-90
2023/01/02 09:36:22;;;;;;;1.10;1.10;;;;;;;3.73;52.79;99037.41;4964473;28;20057;-89
2023/01/02 09:38:55;;;;;;;1.20;1.20;;;;;;;3.55;53.28;99045.94;4959697;28;20046;-91
2023/01/02 09:41:41;;;;;;;1.23;1.20;;;;;;;3.81;52.75;99046.06;4972817;28;20065;-91
2023/01/02 09:44:20;;;;;;;;;;;;;;;3.83;52.21;99045.88;4954088;28;20051;-90
2023/01/02 09:46:59;;;;;;;1.10;1.10;;;;;;;3.84;52.19;99042.97;4990308;28;19992;-90
2023/01/02 09:52:36;;;;;;;1.10;1.10;;;;;;;4.40;51.30;99038.38;4987856;28;20046;-89
2023/01/02 09:55:04;;;;;;;1.10;1.10;;;;;;;4.39;50.50;99044.78;4984779;28;20518;-91
2023/01/02 09:57:41;;;;;;;1.20;1.20;;;;;;;4.36;50.15;98999.75;4985872;28;20058;-90
2023/01/02 10:00:20;;;;;;;1.40;1.30;;;;;;;4.25;50.21;99041.25;4969531;28;20057;-90
2023/01/02 10:03:16;;;;;;;1.27;1.20;;;;;;;4.18;50.45;99061.75;4953963;28;20122;-91
2023/01/02 10:06:03;;;;;;;1.40;1.30;;;;;;;4.16;50.32;99048.63;4976702;28;20054;-92
2023/01/02 10:08:53;;;;;;;1.30;1.20;;;;;;;4.54;50.08;99053.41;4955762;28;20053;-91
2023/01/02 10:11:20;;;;;;;1.13;1.13;;;;;;;4.74;49.04;99043.56;4938495;28;20050;-91
2023/01/02 10:13:55;;;;;;;1.25;1.20;;;;;;;5.03;48.23;99057.53;4928543;29;20043;-90
2023/01/02 10:16:50;;;;;;;1.40;1.30;;;;;;;4.77;48.85;99064.53;4970862;29;20055;-91
2023/01/02 10:24:02;;;;;;;1.40;1.30;;;;;;;4.55;48.42;99050.53;4920136;29;20060;-93
2023/01/02 10:26:37;;;;;;;1.00;1.00;;;;;;;4.65;48.24;99087.56;4917510;29;20073;-92
2023/01/02 10:29:16;;;;;;;1.40;1.30;;;;;;;4.04;48.94;99048.38;4877574;29;20080;-87
2023/01/02 10:32:13;;;;;;;1.27;1.20;;;;;;;3.62;49.63;99079.66;4913465;29;20545;-90
2023/01/02 10:35:25;;;;;;;1.40;1.30;;;;;;;3.51;51.04;99100.72;4861321;29;20054;-90
2023/01/02 10:38:20;;;;;;;1.30;1.20;;;;;;;3.59;50.16;99095.22;4856022;29;20119;-91
2023/01/02 10:40:49;;;;;;;1.23;1.20;;;;;;;3.33;50.90;99096.72;4850335;29;20065;-88
2023/01/02 10:46:35;;;;;;;0.95;0.95;;;;;;;3.07;52.18;99091.22;4841607;29;20084;-87
2023/01/02 10:49:06;;;;;;;0.95;0.95;;;;;;;3.06;52.08;99114.38;4833038;29;20058;-91
2023/01/02 10:51:35;;;;;;;1.00;1.00;;;;;;;2.64;52.46;99117.91;4819196;29;20054;-89
2023/01/02 10:54:08;;;;;;;0.90;0.90;;;;;;;2.35;54.01;99123.13;4822174;29;20045;-89
2023/01/02 10:56:42;;;;;;;;;;;;;;;2.18;53.91;99140.38;4882636;29;20045;-86
2023/01/02 10:59:25;;;;;;;;;;;;;;;2.09;54.11;99152.97;4911213;29;19992;-85
2023/01/02 11:01:58;;;;;;;1.10;1.10;;;;;;;1.69;54.93;99157.75;4897842;29;19951;-86
2023/01/02 11:04:27;;;;;;;1.02;1.02;;;;;;;1.42;55.79;99161.88;4871646;29;20063;-87
2023/01/02 11:07:00;;;;;;;1.10;1.10;;;;;;;1.45;56.27;99156.19;4862386;29;20163;-87
2023/01/02 11:09:36;;;;;;;1.10;1.10;;;;;;;1.42;56.42;99182.31;4873413;29;20051;-89
2023/01/02 11:12:06;;;;;;;1.27;1.20;;;;;;;1.30;56.51;99174.78;4895028;29;20051;-88
2023/01/02 11:14:35;;;;;;;1.10;1.10;;;;;;;1.28;56.89;99168.00;4934386;29;20330;-86
2023/01/02 11:17:05;;;;;;;1.00;1.00;;;;;;;1.49;56.99;99193.88;4939237;29;20082;-88
2023/01/02 11:19:39;;;;;;;1.20;1.20;;;;;;;1.73;56.55;99193.63;4936518;29;20055;-85
2023/01/02 11:22:08;;;;;;;1.10;1.10;;;;;;;2.04;55.61;99207.78;4931108;29;20079;-88
2023/01/02 11:25:04;;;;;;;1.05;1.05;;;;;;;1.77;55.66;99206.56;4912429;29;20066;-85
2023/01/02 11:27:33;;;;;;;1.10;1.10;;;;;;;1.70;56.54;99219.81;4931654;29;20151;-85
2023/01/02 11:30:01;;;;;;;0.98;0.98;;;;;;;1.73;55.69;99209.59;4934241;29;20099;-85
2023/01/02 11:32:40;;;;;;;1.00;1.00;;;;;;;1.55;56.91;99224.28;4933785;29;20111;-84
2023/01/02 11:35:33;;;;;;;1.10;1.10;;;;;;;1.21;57.64;99225.56;4930490;29;20047;-84
2023/01/02 11:38:01;;;;;;;1.00;1.00;;;;;;;1.02;58.35;99206.44;4932479;29;20051;-84
2023/01/02 11:40:30;;;;;;;1.00;1.00;;;;;;;0.84;58.86;99220.00;4932854;29;20110;-86
2023/01/02 11:45:50;;;;;;;1.13;1.10;;;;;;;1.41;57.77;99208.09;4950082;29;20039;-86
2023/01/02 11:48:21;;;;;;;1.10;1.10;;;;;;;1.77;57.26;99214.56;4951728;29;20066;-87
2023/01/02 11:50:48;;;;;;;1.40;1.30;;;;;;;2.32;55.87;99223.91;4934932;28;20071;-84
2023/01/02 11:53:32;;;;;;;1.10;1.10;;;;;;;2.42;54.92;99216.44;4941079;28;20047;-84
2023/01/02 11:56:36;;;;;;;1.13;1.13;;;;;;;3.01;54.35;99212.78;4938700;28;20042;-82
2023/01/02 11:59:15;;;;;;;1.10;1.10;;;;;;;3.60;52.56;99217.00;4881463;29;20059;-85
2023/01/02 12:01:52;;;;;;;1.30;1.20;;;;;;;3.45;51.84;99217.91;4897298;29;20128;-82
2023/01/02 12:04:21;;;;;;;1.40;1.30;;;;;;;3.66;52.32;99213.53;4913002;29;20056;-83
2023/01/02 12:07:19;;;;;;;1.40;1.30;;;;;;;4.00;50.80;99242.09;4896891;29;20107;-83
2023/01/02 12:10:12;;;;;;;1.40;1.30;;;;;;;4.19;50.44;99235.22;4899364;29;20048;-84
2023/01/02 12:12:52;;;;;;;1.30;1.20;;;;;;;4.16;50.66;99251.66;4897504;29;20052;-84
2023/01/02 12:16:02;;;;;;;1.20;1.20;;;;;;;4.11;50.35;99248.75;4912261;29;20143;-83